Time;durP1;ratioP1;P1;durP2;ratioP2;P2;SDS_P1;SDS_P2;PMS_P1;PMS_P2;Temp;Humidity;BMP_temperature;BMP_pressure;BME280_temperature;BME280_humidity;BME280_pressure;Samples;Min_cycle;Max_cycle;Signal;HPM_P1;HPM_P2
2022/08/31 00:04:55;;;;;;;4.07;3.78;;;;;;;;;;5077665;28;20231;-66
2022/08/31 00:07:23;;;;;;;4.18;3.90;;;;;;;;;;5078002;28;20216;-66
2022/08/31 00:09:50;;;;;;;4.00;3.70;;;;;;;;;;5078134;28;20306;-65
2022/08/31 00:12:18;;;;;;;4.10;3.80;;;;;;;;;;5077784;28;20215;-65
2022/08/31 00:14:47;;;;;;;4.00;3.55;;;;;;;;;;5077781;28;20219;-65
2022/08/31 00:17:15;;;;;;;3.90;3.60;;;;;;;;;;5077532;28;20200;-66
2022/08/31 00:19:42;;;;;;;3.78;3.47;;;;;;;;;;5077250;28;20200;-66
2022/08/31 00:22:10;;;;;;;3.95;3.47;;;;;;;;;;5092329;28;20207;-66
2022/08/31 00:24:37;;;;;;;3.80;3.50;;;;;;;;;;5098013;28;20234;-66
2022/08/31 00:27:05;;;;;;;3.75;3.53;;;;;;;;;;5098083;28;20579;-66
2022/08/31 00:29:33;;;;;;;4.00;3.60;;;;;;;;;;5098038;28;20290;-66
2022/08/31 00:32:01;;;;;;;3.95;3.60;;;;;;;;;;5097695;28;20203;-66
2022/08/31 00:34:29;;;;;;;3.83;3.53;;;;;;;;;;5080579;28;20292;-66
2022/08/31 00:36:58;;;;;;;3.95;3.60;;;;;;;;;;5076508;28;20216;-66
2022/08/31 00:39:26;;;;;;;4.05;3.42;;;;;;;;;;5092553;28;20200;-66
2022/08/31 00:41:53;;;;;;;4.15;3.40;;;;;;;;;;5097749;28;20243;-66
2022/08/31 00:44:20;;;;;;;3.60;3.30;;;;;;;;;;5097538;28;20235;-66
2022/08/31 00:46:48;;;;;;;3.35;3.15;;;;;;;;;;5097527;28;20635;-66
2022/08/31 00:49:19;;;;;;;4.22;3.50;;;;;;;;;;5095709;28;20484;-66
2022/08/31 00:51:48;;;;;;;3.70;3.50;;;;;;;;;;5097695;28;20311;-66
2022/08/31 00:54:18;;;;;;;3.50;3.30;;;;;;;;;;5097359;28;20199;-66
2022/08/31 00:56:45;;;;;;;3.75;3.45;;;;;;;;;;5097492;28;20302;-66
2022/08/31 00:59:13;;;;;;;3.78;3.47;;;;;;;;;;5097292;28;20235;-65
2022/08/31 01:01:41;;;;;;;3.90;3.60;;;;;;;;;;5097396;28;20557;-65
2022/08/31 01:04:08;;;;;;;3.50;3.30;;;;;;;;;;5097431;28;20615;-65
2022/08/31 01:06:37;;;;;;;3.50;3.30;;;;;;;;;;5097364;28;20217;-65
2022/08/31 01:09:06;;;;;;;3.97;3.70;;;;;;;;;;5097678;28;20207;-66
2022/08/31 01:11:34;;;;;;;3.65;3.35;;;;;;;;;;5097502;28;20293;-66
2022/08/31 01:14:02;;;;;;;3.60;3.40;;;;;;;;;;5096778;28;20298;-66
2022/08/31 01:16:33;;;;;;;3.88;3.55;;;;;;;;;;5086013;28;20303;-66
2022/08/31 01:19:01;;;;;;;3.70;3.47;;;;;;;;;;5077671;28;20215;-66
2022/08/31 01:21:29;;;;;;;3.67;3.38;;;;;;;;;;5081439;28;20499;-66
2022/08/31 01:24:01;;;;;;;3.60;3.40;;;;;;;;;;5081292;28;20227;-66
2022/08/31 01:26:29;;;;;;;3.63;3.35;;;;;;;;;;5081321;28;20310;-65
2022/08/31 01:28:59;;;;;;;3.55;3.25;;;;;;;;;;5081205;28;20204;-65
2022/08/31 01:31:29;;;;;;;4.18;3.58;;;;;;;;;;5081144;28;20561;-65
2022/08/31 01:33:56;;;;;;;3.80;3.50;;;;;;;;;;5080875;28;20800;-65
2022/08/31 01:36:24;;;;;;;3.63;3.42;;;;;;;;;;5081076;28;20204;-66
2022/08/31 01:38:52;;;;;;;3.80;3.50;;;;;;;;;;5080873;28;20205;-66
2022/08/31 01:41:20;;;;;;;4.15;3.85;;;;;;;;;;5080681;28;20204;-66
2022/08/31 01:43:48;;;;;;;3.92;3.60;;;;;;;;;;5090833;28;20206;-66
2022/08/31 01:46:15;;;;;;;3.75;3.45;;;;;;;;;;5100729;28;20240;-66
2022/08/31 01:48:44;;;;;;;3.70;3.40;;;;;;;;;;5098896;28;20211;-65
2022/08/31 01:51:12;;;;;;;4.63;3.67;;;;;;;;;;5100636;28;20309;-66
2022/08/31 01:53:39;;;;;;;3.50;3.30;;;;;;;;;;5100493;28;20203;-66
2022/08/31 01:56:11;;;;;;;3.45;3.25;;;;;;;;;;5100859;28;20203;-66
2022/08/31 01:58:41;;;;;;;3.70;3.50;;;;;;;;;;5100907;28;20204;-66
2022/08/31 02:01:08;;;;;;;3.63;3.42;;;;;;;;;;5100910;28;20211;-66
2022/08/31 02:03:36;;;;;;;3.70;3.50;;;;;;;;;;5100531;28;20214;-66
2022/08/31 02:06:07;;;;;;;3.88;3.58;;;;;;;;;;5100539;28;20228;-66
2022/08/31 02:08:35;;;;;;;3.63;3.33;;;;;;;;;;5100377;28;20204;-66
2022/08/31 02:11:02;;;;;;;3.60;3.30;;;;;;;;;;5098462;28;20204;-66
2022/08/31 02:13:29;;;;;;;4.15;3.22;;;;;;;;;;5100507;28;20204;-66
2022/08/31 02:15:58;;;;;;;3.70;3.40;;;;;;;;;;5100055;28;20622;-66
2022/08/31 02:18:26;;;;;;;3.90;3.60;;;;;;;;;;5100357;28;20277;-66
2022/08/31 02:20:53;;;;;;;3.75;3.45;;;;;;;;;;5100552;28;20203;-66
2022/08/31 02:23:21;;;;;;;3.65;3.35;;;;;;;;;;5100311;28;20222;-66
2022/08/31 02:25:48;;;;;;;3.60;3.40;;;;;;;;;;5099796;28;20334;-66
2022/08/31 02:28:17;;;;;;;3.60;3.30;;;;;;;;;;5100259;28;20219;-66
2022/08/31 02:30:45;;;;;;;3.88;3.58;;;;;;;;;;5095044;28;20294;-66
2022/08/31 02:33:14;;;;;;;3.78;3.50;;;;;;;;;;5095282;28;20452;-66
2022/08/31 02:35:42;;;;;;;4.00;3.70;;;;;;;;;;5099689;28;20214;-66
2022/08/31 02:38:10;;;;;;;4.70;3.40;;;;;;;;;;5098038;28;20295;-70
2022/08/31 02:40:39;;;;;;;5.22;3.30;;;;;;;;;;5092417;28;20485;-67
2022/08/31 02:43:07;;;;;;;6.28;3.88;;;;;;;;;;5095374;28;20200;-67
2022/08/31 02:45:35;;;;;;;5.47;3.90;;;;;;;;;;5099070;28;20228;-67
2022/08/31 02:48:02;;;;;;;4.78;3.60;;;;;;;;;;5100031;28;20208;-68
2022/08/31 02:50:31;;;;;;;3.55;3.25;;;;;;;;;;5099374;28;20204;-68
2022/08/31 02:52:59;;;;;;;4.72;3.58;;;;;;;;;;5099968;28;20204;-67
2022/08/31 02:55:26;;;;;;;6.13;3.63;;;;;;;;;;5099513;28;20208;-68
2022/08/31 02:57:54;;;;;;;4.32;3.47;;;;;;;;;;5099379;28;20203;-68
2022/08/31 03:00:22;;;;;;;4.93;3.22;;;;;;;;;;5099199;28;20583;-67
2022/08/31 03:02:49;;;;;;;3.78;3.30;;;;;;;;;;5098327;28;20231;-67
2022/08/31 03:05:17;;;;;;;3.58;3.25;;;;;;;;;;5097513;28;20219;-68
2022/08/31 03:07:46;;;;;;;4.28;3.20;;;;;;;;;;5098957;28;20207;-67
2022/08/31 03:10:14;;;;;;;3.35;3.00;;;;;;;;;;5080509;28;20584;-67
2022/08/31 03:12:41;;;;;;;3.10;2.90;;;;;;;;;;5078778;28;20291;-67
2022/08/31 03:15:09;;;;;;;3.22;3.03;;;;;;;;;;5079080;28;20200;-68
2022/08/31 03:17:36;;;;;;;3.30;3.10;;;;;;;;;;5078105;28;20212;-68
2022/08/31 03:20:05;;;;;;;3.72;3.13;;;;;;;;;;5078399;28;20356;-68
2022/08/31 03:22:33;;;;;;;3.03;2.72;;;;;;;;;;5078891;28;20208;-67
2022/08/31 03:25:02;;;;;;;3.40;3.10;;;;;;;;;;5078178;28;20230;-67
2022/08/31 03:27:30;;;;;;;4.03;2.83;;;;;;;;;;5078437;28;20212;-67
2022/08/31 03:29:57;;;;;;;3.67;3.38;;;;;;;;;;5078551;28;20223;-67
2022/08/31 03:32:26;;;;;;;3.25;3.05;;;;;;;;;;5078285;28;20216;-67
2022/08/31 03:34:54;;;;;;;3.60;3.40;;;;;;;;;;5080616;28;20266;-67
2022/08/31 03:37:22;;;;;;;3.42;3.13;;;;;;;;;;5096869;28;20203;-67
2022/08/31 03:39:50;;;;;;;3.60;3.30;;;;;;;;;;5098199;28;20214;-68
2022/08/31 03:42:19;;;;;;;3.13;2.90;;;;;;;;;;5097935;28;20207;-68
2022/08/31 03:44:47;;;;;;;3.47;3.17;;;;;;;;;;5098010;28;20238;-67
2022/08/31 03:47:15;;;;;;;3.40;3.03;;;;;;;;;;5096973;28;20236;-67
2022/08/31 03:49:43;;;;;;;3.65;3.38;;;;;;;;;;5098366;28;20229;-67
2022/08/31 03:52:10;;;;;;;3.05;2.85;;;;;;;;;;5097757;28;20619;-67
2022/08/31 03:54:40;;;;;;;3.40;3.10;;;;;;;;;;5097564;28;20328;-68
2022/08/31 03:57:10;;;;;;;3.20;3.00;;;;;;;;;;5097951;28;20302;-67
2022/08/31 03:59:41;;;;;;;3.72;3.42;;;;;;;;;;5097243;28;20204;-67
2022/08/31 04:02:11;;;;;;;3.40;3.20;;;;;;;;;;5079964;28;20486;-67
2022/08/31 04:04:38;;;;;;;3.65;3.35;;;;;;;;;;5076226;28;20215;-67
2022/08/31 04:07:06;;;;;;;3.70;3.50;;;;;;;;;;5077097;28;20230;-68
2022/08/31 04:09:33;;;;;;;3.97;3.58;;;;;;;;;;5076678;28;20228;-67
2022/08/31 04:12:00;;;;;;;3.65;3.35;;;;;;;;;;5076576;28;20302;-67
2022/08/31 04:14:27;;;;;;;3.47;3.17;;;;;;;;;;5076305;28;20204;-67
2022/08/31 04:16:57;;;;;;;3.80;3.50;;;;;;;;;;5077502;28;20204;-67
2022/08/31 04:19:24;;;;;;;3.67;3.45;;;;;;;;;;5077089;28;20480;-67
2022/08/31 04:21:51;;;;;;;3.47;3.17;;;;;;;;;;5077013;28;20216;-67
2022/08/31 04:24:19;;;;;;;3.42;3.22;;;;;;;;;;5077051;28;20211;-67
2022/08/31 04:26:46;;;;;;;3.90;3.50;;;;;;;;;;5076563;28;20236;-67
2022/08/31 04:29:14;;;;;;;3.20;3.00;;;;;;;;;;5077552;28;20226;-67
2022/08/31 04:31:41;;;;;;;3.90;3.60;;;;;;;;;;5076839;28;20240;-67
2022/08/31 04:34:10;;;;;;;3.15;2.95;;;;;;;;;;5076403;28;20212;-67
2022/08/31 04:36:38;;;;;;;3.45;3.20;;;;;;;;;;5076668;28;20569;-66
2022/08/31 04:39:06;;;;;;;3.50;3.20;;;;;;;;;;5076271;28;20200;-67
2022/08/31 04:41:35;;;;;;;3.63;3.38;;;;;;;;;;5075828;28;20214;-67
2022/08/31 04:44:03;;;;;;;3.60;3.33;;;;;;;;;;5074998;28;20205;-67
2022/08/31 04:46:31;;;;;;;3.72;3.50;;;;;;;;;;5075700;28;20236;-67
2022/08/31 04:48:59;;;;;;;3.40;3.20;;;;;;;;;;5075917;28;20215;-67
2022/08/31 04:51:29;;;;;;;3.85;3.55;;;;;;;;;;5073834;28;20207;-67
2022/08/31 04:53:57;;;;;;;3.70;3.40;;;;;;;;;;5074681;28;20212;-67
2022/08/31 04:56:26;;;;;;;3.70;3.42;;;;;;;;;;5084140;28;20195;-67
2022/08/31 04:58:54;;;;;;;3.80;3.50;;;;;;;;;;5095732;28;20214;-68
2022/08/31 05:01:24;;;;;;;4.60;3.60;;;;;;;;;;5084864;28;20192;-67
2022/08/31 05:03:52;;;;;;;4.38;3.33;;;;;;;;;;5073604;28;20211;-67
2022/08/31 05:06:20;;;;;;;3.92;3.63;;;;;;;;;;5074630;28;20317;-67
2022/08/31 05:08:49;;;;;;;4.05;3.75;;;;;;;;;;5073606;28;20204;-67
2022/08/31 05:11:17;;;;;;;4.18;3.88;;;;;;;;;;5074659;28;20246;-68
2022/08/31 05:13:45;;;;;;;4.20;3.80;;;;;;;;;;5074722;28;20219;-67
2022/08/31 05:16:14;;;;;;;3.83;3.63;;;;;;;;;;5074310;28;20200;-67
2022/08/31 05:18:43;;;;;;;4.13;3.75;;;;;;;;;;5073642;28;20287;-67
2022/08/31 05:21:11;;;;;;;4.72;3.40;;;;;;;;;;5073675;28;20211;-67
2022/08/31 05:23:38;;;;;;;3.80;3.50;;;;;;;;;;5078952;28;20207;-68
2022/08/31 05:26:07;;;;;;;3.92;3.63;;;;;;;;;;5092973;28;20219;-67
2022/08/31 05:28:35;;;;;;;3.63;3.33;;;;;;;;;;5094023;28;20211;-67
2022/08/31 05:31:03;;;;;;;3.72;3.42;;;;;;;;;;5094315;28;20208;-67
2022/08/31 05:33:31;;;;;;;4.07;3.78;;;;;;;;;;5086234;28;20483;-67
2022/08/31 05:36:01;;;;;;;4.38;4.07;;;;;;;;;;5072501;28;20212;-67
2022/08/31 05:38:28;;;;;;;4.15;3.85;;;;;;;;;;5072326;28;20580;-68
2022/08/31 05:40:57;;;;;;;3.78;3.47;;;;;;;;;;5070375;28;20208;-67
2022/08/31 05:43:26;;;;;;;4.00;3.70;;;;;;;;;;5071628;28;20655;-67
2022/08/31 05:45:53;;;;;;;3.88;3.53;;;;;;;;;;5070775;28;20612;-67
2022/08/31 05:48:21;;;;;;;4.10;3.78;;;;;;;;;;5071632;28;20585;-67
2022/08/31 05:50:48;;;;;;;3.90;3.60;;;;;;;;;;5071483;28;20205;-67
2022/08/31 05:53:16;;;;;;;4.07;3.70;;;;;;;;;;5069828;28;20239;-67
2022/08/31 05:55:43;;;;;;;4.00;3.70;;;;;;;;;;5063140;28;20197;-67
2022/08/31 05:58:11;;;;;;;4.05;3.75;;;;;;;;;;5070982;28;20212;-67
2022/08/31 06:00:40;;;;;;;4.20;3.90;;;;;;;;;;5070644;28;20235;-67
2022/08/31 06:03:07;;;;;;;3.72;3.53;;;;;;;;;;5071258;28;20231;-68
2022/08/31 06:05:35;;;;;;;4.35;3.95;;;;;;;;;;5071883;28;20226;-67
2022/08/31 06:08:03;;;;;;;4.18;3.88;;;;;;;;;;5075704;28;20215;-67
2022/08/31 06:10:31;;;;;;;4.32;4.00;;;;;;;;;;5075998;28;20419;-67
2022/08/31 06:13:00;;;;;;;3.92;3.63;;;;;;;;;;5075675;28;20297;-67
2022/08/31 06:15:28;;;;;;;5.55;4.32;;;;;;;;;;5077174;28;20197;-67
2022/08/31 06:17:57;;;;;;;4.00;3.70;;;;;;;;;;5095692;28;20302;-67
2022/08/31 06:20:25;;;;;;;4.00;3.70;;;;;;;;;;5095616;28;20556;-67
2022/08/31 06:22:52;;;;;;;4.32;3.92;;;;;;;;;;5095752;28;20481;-67
2022/08/31 06:25:19;;;;;;;3.88;3.58;;;;;;;;;;5096209;28;20230;-68
2022/08/31 06:27:49;;;;;;;4.25;3.95;;;;;;;;;;5095834;28;20227;-67
2022/08/31 06:30:19;;;;;;;4.22;3.92;;;;;;;;;;5096021;28;20203;-67
2022/08/31 06:32:47;;;;;;;4.32;3.88;;;;;;;;;;5096443;28;20213;-67
2022/08/31 06:35:16;;;;;;;4.90;4.50;;;;;;;;;;5096073;28;20479;-67
2022/08/31 06:37:44;;;;;;;4.32;4.03;;;;;;;;;;5095258;28;20211;-67
2022/08/31 06:40:11;;;;;;;4.40;4.00;;;;;;;;;;5096279;28;20208;-67
2022/08/31 06:42:39;;;;;;;4.57;4.25;;;;;;;;;;5096353;28;20211;-67
2022/08/31 06:45:07;;;;;;;4.40;4.10;;;;;;;;;;5094620;28;20195;-67
2022/08/31 06:47:35;;;;;;;4.75;4.45;;;;;;;;;;5095955;28;20709;-68
2022/08/31 06:50:02;;;;;;;5.18;4.78;;;;;;;;;;5094840;28;20203;-68
2022/08/31 06:52:31;;;;;;;6.15;5.65;;;;;;;;;;5094984;28;20274;-67
2022/08/31 06:54:58;;;;;;;5.32;4.93;;;;;;;;;;5095548;28;20206;-67
2022/08/31 06:57:26;;;;;;;6.05;5.55;;;;;;;;;;5094736;28;20298;-67
2022/08/31 06:59:53;;;;;;;5.97;5.50;;;;;;;;;;5094168;28;20203;-67
2022/08/31 07:02:21;;;;;;;6.38;5.88;;;;;;;;;;5095628;28;20203;-67
2022/08/31 07:04:48;;;;;;;6.32;5.82;;;;;;;;;;5095244;28;20494;-68
2022/08/31 07:07:15;;;;;;;6.10;5.60;;;;;;;;;;5096688;28;20234;-67
2022/08/31 07:09:44;;;;;;;6.20;5.70;;;;;;;;;;5096789;28;20302;-67
2022/08/31 07:12:12;;;;;;;6.35;5.85;;;;;;;;;;5094885;28;20283;-67
2022/08/31 07:14:39;;;;;;;6.88;6.28;;;;;;;;;;5096611;28;20222;-67
2022/08/31 07:17:07;;;;;;;6.28;5.68;;;;;;;;;;5094439;28;20211;-67
2022/08/31 07:19:35;;;;;;;6.82;6.22;;;;;;;;;;5096428;28;20200;-67
2022/08/31 07:22:05;;;;;;;6.60;6.10;;;;;;;;;;5096446;28;20204;-67
2022/08/31 07:24:34;;;;;;;6.90;6.40;;;;;;;;;;5095939;28;20200;-67
2022/08/31 07:27:04;;;;;;;7.22;6.63;;;;;;;;;;5096237;28;20223;-67
2022/08/31 07:29:39;;;;;;;7.13;6.47;;;;;;;;;;5096270;28;20204;-68
2022/08/31 07:32:07;;;;;;;6.70;6.20;;;;;;;;;;5096100;28;20210;-67
2022/08/31 07:34:35;;;;;;;7.03;6.45;;;;;;;;;;5095257;28;20211;-67
2022/08/31 07:42:36;;;;;;;6.90;6.40;;;;;;;;;;5089871;28;20202;-67
2022/08/31 07:45:05;;;;;;;7.22;6.63;;;;;;;;;;5095656;28;20570;-67
2022/08/31 07:47:39;;;;;;;7.10;6.57;;;;;;;;;;5095618;28;20297;-67
2022/08/31 07:50:07;;;;;;;7.60;7.00;;;;;;;;;;5095577;28;20267;-67
2022/08/31 07:52:35;;;;;;;7.38;6.78;;;;;;;;;;5096360;28;20548;-67
2022/08/31 07:55:06;;;;;;;7.57;6.97;;;;;;;;;;5095115;28;20208;-67
2022/08/31 07:57:42;;;;;;;6.90;6.40;;;;;;;;;;5095392;28;20195;-67
2022/08/31 08:00:10;;;;;;;7.32;6.70;;;;;;;;;;5095194;28;20199;-67
2022/08/31 08:02:38;;;;;;;6.82;6.32;;;;;;;;;;5095260;28;20233;-67
2022/08/31 08:05:07;;;;;;;7.15;6.65;;;;;;;;;;5093316;28;20211;-67
2022/08/31 08:07:35;;;;;;;7.93;7.30;;;;;;;;;;5094565;28;20227;-67
2022/08/31 08:10:03;;;;;;;7.30;6.70;;;;;;;;;;5094870;28;20283;-68
2022/08/31 08:12:35;;;;;;;7.13;6.63;;;;;;;;;;5094484;28;20328;-67
2022/08/31 08:15:05;;;;;;;7.05;6.55;;;;;;;;;;5094682;28;20203;-68
2022/08/31 08:17:32;;;;;;;7.30;6.72;;;;;;;;;;5095575;28;20531;-67
2022/08/31 08:20:00;;;;;;;7.80;7.10;;;;;;;;;;5095053;28;20219;-67
2022/08/31 08:22:27;;;;;;;7.68;7.10;;;;;;;;;;5092833;28;20515;-67
2022/08/31 08:24:56;;;;;;;7.00;6.50;;;;;;;;;;5091323;28;20215;-67
2022/08/31 08:27:24;;;;;;;7.43;6.93;;;;;;;;;;5091824;28;20230;-68
2022/08/31 08:29:51;;;;;;;7.57;6.97;;;;;;;;;;5091650;28;20632;-67
2022/08/31 08:32:22;;;;;;;7.43;6.82;;;;;;;;;;5092243;28;20203;-67
2022/08/31 08:34:49;;;;;;;7.78;7.18;;;;;;;;;;5072143;28;20253;-67
2022/08/31 08:37:17;;;;;;;8.07;7.47;;;;;;;;;;5074021;28;20216;-67
2022/08/31 08:39:44;;;;;;;7.82;7.22;;;;;;;;;;5073782;28;20270;-67
2022/08/31 08:42:13;;;;;;;7.72;7.13;;;;;;;;;;5073177;28;20204;-67
2022/08/31 08:44:41;;;;;;;7.57;7.07;;;;;;;;;;5071937;28;20306;-68
2022/08/31 08:47:13;;;;;;;7.82;7.22;;;;;;;;;;5072857;28;20232;-67
2022/08/31 08:49:44;;;;;;;7.75;7.15;;;;;;;;;;5071805;28;20308;-67
2022/08/31 08:52:13;;;;;;;8.68;7.97;;;;;;;;;;5073899;28;20204;-67
2022/08/31 08:54:42;;;;;;;7.80;7.20;;;;;;;;;;5072970;28;20216;-67
2022/08/31 08:57:13;;;;;;;8.13;7.43;;;;;;;;;;5073517;28;20211;-67
2022/08/31 08:59:40;;;;;;;8.10;7.50;;;;;;;;;;5073784;28;20254;-68
2022/08/31 09:02:10;;;;;;;8.50;7.90;;;;;;;;;;5089644;28;20210;-67
2022/08/31 09:04:45;;;;;;;7.68;7.13;;;;;;;;;;5093810;28;20208;-67
2022/08/31 09:07:22;;;;;;;8.88;8.23;;;;;;;;;;5093208;28;20651;-67
2022/08/31 09:09:56;;;;;;;8.30;7.70;;;;;;;;;;5093134;28;20312;-67
2022/08/31 09:12:30;;;;;;;8.10;7.50;;;;;;;;;;5094039;28;20233;-68
2022/08/31 09:15:14;;;;;;;7.30;6.80;;;;;;;;;;5093128;28;20267;-67
2022/08/31 09:17:46;;;;;;;7.85;7.18;;;;;;;;;;5092433;28;20199;-68
2022/08/31 09:20:15;;;;;;;7.25;6.63;;;;;;;;;;5093225;28;20204;-67
2022/08/31 09:22:49;;;;;;;7.00;6.50;;;;;;;;;;5093006;28;20195;-67
2022/08/31 09:25:17;;;;;;;7.22;6.72;;;;;;;;;;5092985;28;20203;-67
2022/08/31 09:27:55;;;;;;;6.78;6.28;;;;;;;;;;5090683;28;20604;-67
2022/08/31 09:30:34;;;;;;;7.05;6.55;;;;;;;;;;5092834;28;20204;-67
2022/08/31 09:33:02;;;;;;;6.90;6.40;;;;;;;;;;5092539;28;20210;-68
2022/08/31 09:35:40;;;;;;;6.22;5.72;;;;;;;;;;5092436;28;20587;-67
2022/08/31 09:38:10;;;;;;;5.80;5.40;;;;;;;;;;5093817;28;20572;-67
2022/08/31 09:40:41;;;;;;;6.00;5.57;;;;;;;;;;5094372;28;20260;-67
2022/08/31 09:43:11;;;;;;;5.75;5.28;;;;;;;;;;5095657;28;20203;-68
2022/08/31 09:45:41;;;;;;;5.70;5.30;;;;;;;;;;5093492;28;20223;-67
2022/08/31 09:48:08;;;;;;;5.53;5.07;;;;;;;;;;5094617;28;20238;-68
2022/08/31 09:50:43;;;;;;;4.93;4.60;;;;;;;;;;5095037;28;20226;-67
2022/08/31 09:56:21;;;;;;;4.68;4.28;;;;;;;;;;5077631;28;20352;-67
2022/08/31 09:58:50;;;;;;;4.30;4.00;;;;;;;;;;5073016;28;20204;-67
2022/08/31 10:01:19;;;;;;;5.45;4.22;;;;;;;;;;5073020;28;20204;-67
2022/08/31 10:03:47;;;;;;;4.28;3.97;;;;;;;;;;5072853;28;20215;-67
2022/08/31 10:06:36;;;;;;;4.15;3.80;;;;;;;;;;5073479;28;20514;-67
2022/08/31 10:09:08;;;;;;;4.03;3.72;;;;;;;;;;5068825;28;20303;-67
2022/08/31 10:11:38;;;;;;;3.83;3.53;;;;;;;;;;5073149;28;20204;-67
2022/08/31 10:14:09;;;;;;;3.65;3.38;;;;;;;;;;5073876;28;20196;-67
2022/08/31 10:16:38;;;;;;;3.47;3.25;;;;;;;;;;5073859;28;20251;-67
2022/08/31 10:19:08;;;;;;;3.33;3.13;;;;;;;;;;5073537;28;20586;-67
2022/08/31 10:21:43;;;;;;;3.38;3.08;;;;;;;;;;5073690;28;20212;-67
2022/08/31 10:24:19;;;;;;;3.50;3.30;;;;;;;;;;5072849;28;20495;-68
2022/08/31 10:26:49;;;;;;;3.28;2.80;;;;;;;;;;5072260;28;20324;-67
2022/08/31 10:29:20;;;;;;;2.90;2.70;;;;;;;;;;5073705;28;20204;-67
2022/08/31 10:31:49;;;;;;;3.60;3.30;;;;;;;;;;5073474;28;20211;-67
2022/08/31 10:37:09;;;;;;;3.15;2.90;;;;;;;;;;5072965;28;20293;-67
2022/08/31 10:39:40;;;;;;;3.67;2.92;;;;;;;;;;5072636;28;20208;-68
2022/08/31 10:42:10;;;;;;;4.05;3.13;;;;;;;;;;5071290;28;20215;-67
2022/08/31 10:44:41;;;;;;;3.60;3.30;;;;;;;;;;5071613;28;20223;-67
2022/08/31 10:47:08;;;;;;;3.05;2.85;;;;;;;;;;5072370;28;20236;-68
2022/08/31 10:49:37;;;;;;;3.50;3.20;;;;;;;;;;5071787;28;20568;-67
2022/08/31 10:52:10;;;;;;;2.83;2.60;;;;;;;;;;5072095;28;20226;-67
2022/08/31 10:54:43;;;;;;;3.30;3.00;;;;;;;;;;5072171;28;20411;-67
2022/08/31 10:57:18;;;;;;;3.28;2.97;;;;;;;;;;5071961;28;20200;-67
2022/08/31 10:59:50;;;;;;;2.85;2.58;;;;;;;;;;5073170;28;20207;-67
2022/08/31 11:02:32;;;;;;;2.72;2.53;;;;;;;;;;5071278;28;20212;-68
2022/08/31 11:05:02;;;;;;;3.55;3.25;;;;;;;;;;5069523;28;20455;-67
2022/08/31 11:07:37;;;;;;;3.00;2.80;;;;;;;;;;5071497;28;20452;-67
2022/08/31 11:10:12;;;;;;;3.60;3.30;;;;;;;;;;5072490;28;20207;-67
2022/08/31 11:12:43;;;;;;;2.55;2.45;;;;;;;;;;5072695;28;20463;-67
2022/08/31 11:15:21;;;;;;;3.15;2.95;;;;;;;;;;5071356;28;20200;-67
2022/08/31 11:17:55;;;;;;;3.25;3.05;;;;;;;;;;5073570;28;20210;-67
2022/08/31 11:20:31;;;;;;;4.43;3.05;;;;;;;;;;5091060;28;20218;-67
2022/08/31 11:23:10;;;;;;;2.85;2.65;;;;;;;;;;5090820;28;20199;-67
2022/08/31 11:26:08;;;;;;;3.20;2.90;;;;;;;;;;5090511;28;20214;-67
2022/08/31 11:28:38;;;;;;;2.75;2.55;;;;;;;;;;5091221;28;20237;-67
2022/08/31 11:31:22;;;;;;;2.85;2.60;;;;;;;;;;5089873;28;20366;-67
2022/08/31 11:33:53;;;;;;;2.83;2.63;;;;;;;;;;5074742;28;20200;-67
2022/08/31 11:36:36;;;;;;;2.90;2.60;;;;;;;;;;5069433;28;20208;-67
2022/08/31 11:39:21;;;;;;;3.45;3.15;;;;;;;;;;5070678;28;20274;-67
2022/08/31 11:41:49;;;;;;;3.05;2.78;;;;;;;;;;5063376;28;20305;-67
2022/08/31 11:44:35;;;;;;;3.00;2.80;;;;;;;;;;5069625;28;20204;-68
2022/08/31 11:47:06;;;;;;;3.05;2.83;;;;;;;;;;5070185;28;20238;-67
2022/08/31 11:49:43;;;;;;;2.85;2.65;;;;;;;;;;5070732;28;20201;-67
2022/08/31 11:52:42;;;;;;;3.15;2.85;;;;;;;;;;5070720;28;20497;-67
2022/08/31 11:55:25;;;;;;;3.00;2.65;;;;;;;;;;4987172;28;20243;-67
2022/08/31 11:58:26;;;;;;;3.20;2.97;;;;;;;;;;5061940;28;20207;-67
2022/08/31 12:01:08;;;;;;;3.28;3.08;;;;;;;;;;5066231;28;20215;-67
2022/08/31 12:03:49;;;;;;;3.40;3.15;;;;;;;;;;5070875;28;20208;-67
2022/08/31 12:06:36;;;;;;;3.60;3.30;;;;;;;;;;5070347;28;20573;-67
2022/08/31 12:09:19;;;;;;;3.25;3.05;;;;;;;;;;5070361;28;20220;-67
2022/08/31 12:11:48;;;;;;;3.65;3.35;;;;;;;;;;5071490;28;20204;-67
2022/08/31 12:14:20;;;;;;;3.60;3.20;;;;;;;;;;5071449;28;20227;-67
2022/08/31 12:17:00;;;;;;;3.38;2.85;;;;;;;;;;5062606;28;20205;-67
2022/08/31 12:25:21;;;;;;;3.40;3.10;;;;;;;;;;5068294;28;20218;-68
2022/08/31 12:27:55;;;;;;;3.28;2.97;;;;;;;;;;5068411;28;20330;-68
2022/08/31 12:30:23;;;;;;;3.28;2.97;;;;;;;;;;5068759;28;20196;-67
2022/08/31 12:32:55;;;;;;;3.70;3.42;;;;;;;;;;5069907;28;20215;-67
2022/08/31 12:35:27;;;;;;;3.33;3.03;;;;;;;;;;5068402;28;20504;-67
2022/08/31 12:37:59;;;;;;;3.63;3.38;;;;;;;;;;5067584;28;20212;-67
2022/08/31 12:40:27;;;;;;;3.22;2.95;;;;;;;;;;5069551;28;20204;-68
2022/08/31 12:43:03;;;;;;;3.05;2.85;;;;;;;;;;5079855;28;20218;-67
2022/08/31 12:45:39;;;;;;;3.53;2.60;;;;;;;;;;5072626;28;20208;-68
2022/08/31 12:48:10;;;;;;;3.40;3.10;;;;;;;;;;5071215;28;20230;-68
2022/08/31 12:50:43;;;;;;;3.63;3.10;;;;;;;;;;5070662;28;20215;-68
2022/08/31 12:53:26;;;;;;;3.17;2.85;;;;;;;;;;5070090;28;20204;-68
2022/08/31 12:55:57;;;;;;;3.10;2.80;;;;;;;;;;5068989;28;20196;-67
2022/08/31 12:58:32;;;;;;;3.33;3.08;;;;;;;;;;5070121;28;20375;-67
2022/08/31 13:01:05;;;;;;;3.60;3.30;;;;;;;;;;5069885;28;20464;-68
2022/08/31 13:03:32;;;;;;;3.30;3.10;;;;;;;;;;5070176;28;20208;-67
2022/08/31 13:06:06;;;;;;;3.13;2.88;;;;;;;;;;5071227;28;20495;-68
2022/08/31 13:08:35;;;;;;;3.30;3.10;;;;;;;;;;5069406;28;20223;-67
2022/08/31 13:11:13;;;;;;;3.45;3.00;;;;;;;;;;5072290;28;20200;-68
2022/08/31 13:13:41;;;;;;;3.30;3.00;;;;;;;;;;5070977;28;20204;-67
2022/08/31 13:16:09;;;;;;;3.85;3.30;;;;;;;;;;5068539;28;20207;-67
2022/08/31 13:18:36;;;;;;;3.30;3.08;;;;;;;;;;5067451;28;20200;-67
2022/08/31 13:21:05;;;;;;;3.00;2.80;;;;;;;;;;5070069;28;20414;-67
2022/08/31 13:23:37;;;;;;;3.30;3.00;;;;;;;;;;5070654;28;20215;-68
2022/08/31 13:26:18;;;;;;;2.97;2.78;;;;;;;;;;5069348;28;20215;-67
2022/08/31 13:28:49;;;;;;;3.25;2.83;;;;;;;;;;5069081;28;20224;-67
2022/08/31 13:31:20;;;;;;;3.08;2.88;;;;;;;;;;5069185;28;20594;-67
2022/08/31 13:33:48;;;;;;;2.90;2.70;;;;;;;;;;5061809;28;20485;-67
2022/08/31 13:36:22;;;;;;;2.88;2.67;;;;;;;;;;5069655;28;20204;-67
2022/08/31 13:38:52;;;;;;;3.15;2.80;;;;;;;;;;5087509;28;20426;-68
2022/08/31 13:41:26;;;;;;;2.90;2.70;;;;;;;;;;5089341;28;20203;-68
2022/08/31 13:44:00;;;;;;;3.10;2.90;;;;;;;;;;5089332;28;20218;-67
2022/08/31 13:46:33;;;;;;;2.90;2.70;;;;;;;;;;5087771;28;20240;-67
2022/08/31 13:49:02;;;;;;;3.20;2.90;;;;;;;;;;5088678;28;20246;-67
2022/08/31 13:51:34;;;;;;;3.08;2.78;;;;;;;;;;5090687;28;20523;-67
2022/08/31 13:54:06;;;;;;;2.72;2.53;;;;;;;;;;5088204;28;20550;-67
2022/08/31 13:56:56;;;;;;;2.90;2.70;;;;;;;;;;5088172;28;20200;-67
2022/08/31 13:59:34;;;;;;;3.08;2.78;;;;;;;;;;5088279;28;20735;-67
2022/08/31 14:02:03;;;;;;;2.75;2.42;;;;;;;;;;5089088;28;20212;-67
2022/08/31 14:04:45;;;;;;;2.85;2.65;;;;;;;;;;5084790;28;20461;-67
2022/08/31 14:07:18;;;;;;;2.67;2.47;;;;;;;;;;5068507;28;20293;-67
2022/08/31 14:09:46;;;;;;;2.78;2.50;;;;;;;;;;5068389;28;20230;-67
2022/08/31 14:12:33;;;;;;;2.80;2.60;;;;;;;;;;5070409;28;20201;-67
2022/08/31 14:15:08;;;;;;;2.50;2.30;;;;;;;;;;5063944;28;20235;-67
2022/08/31 14:17:36;;;;;;;3.03;2.83;;;;;;;;;;5070117;28;20200;-67
2022/08/31 14:20:18;;;;;;;2.70;2.50;;;;;;;;;;5068921;28;20714;-67
2022/08/31 14:22:48;;;;;;;2.67;2.47;;;;;;;;;;5068248;28;20506;-67
2022/08/31 14:25:20;;;;;;;2.85;2.50;;;;;;;;;;5069580;28;20208;-68
2022/08/31 14:27:48;;;;;;;2.67;2.47;;;;;;;;;;5072379;28;20593;-67
2022/08/31 14:30:15;;;;;;;2.75;2.55;;;;;;;;;;5073010;28;20663;-68
2022/08/31 14:32:44;;;;;;;2.60;2.40;;;;;;;;;;5080333;28;20443;-67
2022/08/31 14:35:12;;;;;;;2.60;2.40;;;;;;;;;;5074991;28;20196;-68
2022/08/31 14:37:42;;;;;;;2.80;2.60;;;;;;;;;;5070953;28;20201;-67
2022/08/31 14:40:12;;;;;;;2.50;2.30;;;;;;;;;;5072618;28;20212;-68
2022/08/31 14:42:40;;;;;;;2.70;2.50;;;;;;;;;;5073347;28;20291;-67
2022/08/31 14:45:09;;;;;;;2.60;2.40;;;;;;;;;;5072563;28;20204;-67
2022/08/31 14:47:42;;;;;;;2.50;2.30;;;;;;;;;;5070730;28;20240;-66
2022/08/31 14:50:10;;;;;;;2.60;2.40;;;;;;;;;;5073024;28;20201;-67
2022/08/31 14:52:39;;;;;;;2.50;2.30;;;;;;;;;;5072521;28;20219;-67
2022/08/31 14:55:09;;;;;;;2.67;2.47;;;;;;;;;;5072636;28;20208;-67
2022/08/31 14:57:40;;;;;;;2.80;2.58;;;;;;;;;;5073244;28;20219;-67
2022/08/31 15:00:08;;;;;;;2.78;2.58;;;;;;;;;;5081495;28;20191;-67
2022/08/31 15:02:36;;;;;;;2.60;2.40;;;;;;;;;;5091238;28;20200;-68
2022/08/31 15:05:05;;;;;;;2.70;2.50;;;;;;;;;;5092445;28;20248;-67
2022/08/31 15:07:33;;;;;;;2.40;2.30;;;;;;;;;;5091808;28;20257;-67
2022/08/31 15:10:02;;;;;;;2.58;2.38;;;;;;;;;;5090460;28;20638;-68
2022/08/31 15:12:29;;;;;;;2.70;2.50;;;;;;;;;;5092210;28;20203;-67
2022/08/31 15:14:58;;;;;;;2.55;2.35;;;;;;;;;;5090863;28;20215;-67
2022/08/31 15:17:26;;;;;;;2.97;2.78;;;;;;;;;;5090747;28;20277;-67
2022/08/31 15:19:54;;;;;;;2.83;2.55;;;;;;;;;;5092195;28;20302;-68
2022/08/31 15:22:23;;;;;;;2.53;2.33;;;;;;;;;;5092781;28;20195;-67